sensor_id;sensor_type;location;lat;lon;timestamp;temperature;humidity
65472;DHT22;52068;50.710;14.492;2023-08-30T00:02:11;23.04;54.99
65472;DHT22;52068;50.710;14.492;2023-08-30T00:04:36;23.06;55.09
65472;DHT22;52068;50.710;14.492;2023-08-30T00:07:02;23.03;55.01
65472;DHT22;52068;50.710;14.492;2023-08-30T00:09:27;23.03;54.98
65472;DHT22;52068;50.710;14.492;2023-08-30T00:11:52;23.06;55.14
65472;DHT22;52068;50.710;14.492;2023-08-30T00:14:18;23.04;55.18
65472;DHT22;52068;50.710;14.492;2023-08-30T00:16:44;23.07;55.17
65472;DHT22;52068;50.710;14.492;2023-08-30T00:19:09;23.04;55.17
65472;DHT22;52068;50.710;14.492;2023-08-30T00:21:35;23.06;55.27
65472;DHT22;52068;50.710;14.492;2023-08-30T00:24:00;23.04;55.25
65472;DHT22;52068;50.710;14.492;2023-08-30T00:26:26;23.04;55.20
65472;DHT22;52068;50.710;14.492;2023-08-30T00:28:51;23.04;55.20
65472;DHT22;52068;50.710;14.492;2023-08-30T00:31:16;23.06;55.25
65472;DHT22;52068;50.710;14.492;2023-08-30T00:33:42;23.04;55.15
65472;DHT22;52068;50.710;14.492;2023-08-30T00:36:07;23.03;55.25
65472;DHT22;52068;50.710;14.492;2023-08-30T00:38:33;23.04;55.25
65472;DHT22;52068;50.710;14.492;2023-08-30T00:40:58;23.04;55.26
65472;DHT22;52068;50.710;14.492;2023-08-30T00:43:24;23.03;55.24
65472;DHT22;52068;50.710;14.492;2023-08-30T00:45:49;23.00;55.23
65472;DHT22;52068;50.710;14.492;2023-08-30T00:48:17;23.02;55.33
65472;DHT22;52068;50.710;14.492;2023-08-30T00:50:44;23.03;55.42
65472;DHT22;52068;50.710;14.492;2023-08-30T00:53:10;23.00;55.47
65472;DHT22;52068;50.710;14.492;2023-08-30T00:55:36;23.04;55.58
65472;DHT22;52068;50.710;14.492;2023-08-30T00:58:02;23.03;55.61
65472;DHT22;52068;50.710;14.492;2023-08-30T01:00:31;23.03;55.49
65472;DHT22;52068;50.710;14.492;2023-08-30T01:02:58;23.03;55.36
65472;DHT22;52068;50.710;14.492;2023-08-30T01:05:23;23.03;55.36
65472;DHT22;52068;50.710;14.492;2023-08-30T01:07:50;23.02;55.37
65472;DHT22;52068;50.710;14.492;2023-08-30T01:10:16;23.03;55.43
65472;DHT22;52068;50.710;14.492;2023-08-30T01:12:49;23.02;55.30
65472;DHT22;52068;50.710;14.492;2023-08-30T01:15:20;23.03;55.40
65472;DHT22;52068;50.710;14.492;2023-08-30T01:17:52;23.00;55.32
65472;DHT22;52068;50.710;14.492;2023-08-30T01:20:19;23.00;55.41
65472;DHT22;52068;50.710;14.492;2023-08-30T01:23:00;23.02;55.51
65472;DHT22;52068;50.710;14.492;2023-08-30T01:25:50;22.97;55.41
65472;DHT22;52068;50.710;14.492;2023-08-30T01:28:23;23.00;55.45
65472;DHT22;52068;50.710;14.492;2023-08-30T01:30:50;22.97;55.56
65472;DHT22;52068;50.710;14.492;2023-08-30T01:33:19;23.00;55.54
65472;DHT22;52068;50.710;14.492;2023-08-30T01:35:46;23.00;55.46
65472;DHT22;52068;50.710;14.492;2023-08-30T01:38:13;22.99;55.52
65472;DHT22;52068;50.710;14.492;2023-08-30T01:40:41;22.99;55.46
65472;DHT22;52068;50.710;14.492;2023-08-30T01:43:08;23.00;55.51
65472;DHT22;52068;50.710;14.492;2023-08-30T01:45:40;23.00;55.43
65472;DHT22;52068;50.710;14.492;2023-08-30T01:48:07;22.99;55.45
65472;DHT22;52068;50.710;14.492;2023-08-30T01:50:34;23.02;55.47
65472;DHT22;52068;50.710;14.492;2023-08-30T01:53:00;22.99;55.41
65472;DHT22;52068;50.710;14.492;2023-08-30T01:55:26;22.96;55.43
65472;DHT22;52068;50.710;14.492;2023-08-30T01:57:53;22.97;55.39
65472;DHT22;52068;50.710;14.492;2023-08-30T02:00:18;23.00;55.38
65472;DHT22;52068;50.710;14.492;2023-08-30T02:02:44;22.99;55.37
65472;DHT22;52068;50.710;14.492;2023-08-30T02:05:09;22.97;55.35
65472;DHT22;52068;50.710;14.492;2023-08-30T02:07:51;22.99;55.38
65472;DHT22;52068;50.710;14.492;2023-08-30T02:10:23;22.96;55.41
65472;DHT22;52068;50.710;14.492;2023-08-30T02:12:52;22.96;55.35
65472;DHT22;52068;50.710;14.492;2023-08-30T02:15:20;22.94;55.45
65472;DHT22;52068;50.710;14.492;2023-08-30T02:17:46;22.97;55.31
65472;DHT22;52068;50.710;14.492;2023-08-30T02:20:11;22.96;55.39
65472;DHT22;52068;50.710;14.492;2023-08-30T02:22:37;22.96;55.42
65472;DHT22;52068;50.710;14.492;2023-08-30T02:25:02;22.96;55.41
65472;DHT22;52068;50.710;14.492;2023-08-30T02:27:32;22.96;55.38
65472;DHT22;52068;50.710;14.492;2023-08-30T02:29:58;22.96;55.44
65472;DHT22;52068;50.710;14.492;2023-08-30T02:32:24;22.96;55.44
65472;DHT22;52068;50.710;14.492;2023-08-30T02:34:50;22.96;55.36
65472;DHT22;52068;50.710;14.492;2023-08-30T02:37:16;22.96;55.37
65472;DHT22;52068;50.710;14.492;2023-08-30T02:39:41;22.97;55.46
65472;DHT22;52068;50.710;14.492;2023-08-30T02:42:07;22.96;55.41
65472;DHT22;52068;50.710;14.492;2023-08-30T02:44:32;22.96;55.44
65472;DHT22;52068;50.710;14.492;2023-08-30T02:46:57;22.94;55.34
65472;DHT22;52068;50.710;14.492;2023-08-30T02:49:23;22.94;55.34
65472;DHT22;52068;50.710;14.492;2023-08-30T02:51:48;22.92;55.39
65472;DHT22;52068;50.710;14.492;2023-08-30T02:54:14;22.93;55.41
65472;DHT22;52068;50.710;14.492;2023-08-30T02:56:43;22.92;55.40
65472;DHT22;52068;50.710;14.492;2023-08-30T02:59:09;22.92;55.47
65472;DHT22;52068;50.710;14.492;2023-08-30T03:01:35;22.92;55.50
65472;DHT22;52068;50.710;14.492;2023-08-30T03:04:00;22.93;55.33
65472;DHT22;52068;50.710;14.492;2023-08-30T03:06:26;22.93;55.35
65472;DHT22;52068;50.710;14.492;2023-08-30T03:08:53;22.90;55.46
65472;DHT22;52068;50.710;14.492;2023-08-30T03:11:18;22.93;55.47
65472;DHT22;52068;50.710;14.492;2023-08-30T03:13:44;22.90;55.41
65472;DHT22;52068;50.710;14.492;2023-08-30T03:16:13;22.92;55.40
65472;DHT22;52068;50.710;14.492;2023-08-30T03:18:39;22.89;55.41
65472;DHT22;52068;50.710;14.492;2023-08-30T03:21:05;22.90;55.44
65472;DHT22;52068;50.710;14.492;2023-08-30T03:23:31;22.90;55.34
65472;DHT22;52068;50.710;14.492;2023-08-30T03:25:58;22.86;55.49
65472;DHT22;52068;50.710;14.492;2023-08-30T03:28:23;22.89;55.43
65472;DHT22;52068;50.710;14.492;2023-08-30T03:30:49;22.87;55.49
65472;DHT22;52068;50.710;14.492;2023-08-30T03:33:14;22.87;55.52
65472;DHT22;52068;50.710;14.492;2023-08-30T03:35:39;22.87;55.47
65472;DHT22;52068;50.710;14.492;2023-08-30T03:38:05;22.87;55.36
65472;DHT22;52068;50.710;14.492;2023-08-30T03:40:30;22.86;55.38
65472;DHT22;52068;50.710;14.492;2023-08-30T03:42:56;22.87;55.56
65472;DHT22;52068;50.710;14.492;2023-08-30T03:45:21;22.87;55.51
65472;DHT22;52068;50.710;14.492;2023-08-30T03:47:46;22.87;55.46
65472;DHT22;52068;50.710;14.492;2023-08-30T03:50:12;22.83;55.45
65472;DHT22;52068;50.710;14.492;2023-08-30T03:52:37;22.82;55.41
65472;DHT22;52068;50.710;14.492;2023-08-30T03:55:03;22.83;55.47
65472;DHT22;52068;50.710;14.492;2023-08-30T03:57:28;22.84;55.48
65472;DHT22;52068;50.710;14.492;2023-08-30T03:59:54;22.83;55.50
65472;DHT22;52068;50.710;14.492;2023-08-30T04:02:19;22.86;55.53
65472;DHT22;52068;50.710;14.492;2023-08-30T04:04:47;22.84;55.61
65472;DHT22;52068;50.710;14.492;2023-08-30T04:07:13;22.82;55.66
65472;DHT22;52068;50.710;14.492;2023-08-30T04:09:40;22.83;55.90
65472;DHT22;52068;50.710;14.492;2023-08-30T04:12:06;22.82;56.07
65472;DHT22;52068;50.710;14.492;2023-08-30T04:14:31;22.82;56.09
65472;DHT22;52068;50.710;14.492;2023-08-30T04:16:56;22.83;56.13
65472;DHT22;52068;50.710;14.492;2023-08-30T04:19:22;22.84;56.21
65472;DHT22;52068;50.710;14.492;2023-08-30T04:21:47;22.87;56.11
65472;DHT22;52068;50.710;14.492;2023-08-30T04:24:14;22.87;56.23
65472;DHT22;52068;50.710;14.492;2023-08-30T04:26:39;22.90;56.10
65472;DHT22;52068;50.710;14.492;2023-08-30T04:29:05;22.90;56.11
65472;DHT22;52068;50.710;14.492;2023-08-30T04:31:31;22.90;56.05
65472;DHT22;52068;50.710;14.492;2023-08-30T04:33:56;22.90;56.03
65472;DHT22;52068;50.710;14.492;2023-08-30T04:36:22;22.90;56.01
65472;DHT22;52068;50.710;14.492;2023-08-30T04:38:47;22.90;56.01
65472;DHT22;52068;50.710;14.492;2023-08-30T04:41:13;22.92;55.95
65472;DHT22;52068;50.710;14.492;2023-08-30T04:43:38;22.96;56.00
65472;DHT22;52068;50.710;14.492;2023-08-30T04:46:03;22.96;56.05
65472;DHT22;52068;50.710;14.492;2023-08-30T04:48:29;22.96;56.00
65472;DHT22;52068;50.710;14.492;2023-08-30T04:50:59;22.96;55.89
65472;DHT22;52068;50.710;14.492;2023-08-30T04:53:25;22.97;55.96
65472;DHT22;52068;50.710;14.492;2023-08-30T04:55:50;23.00;55.91
65472;DHT22;52068;50.710;14.492;2023-08-30T04:58:15;22.97;55.82
65472;DHT22;52068;50.710;14.492;2023-08-30T05:00:41;23.00;55.95
65472;DHT22;52068;50.710;14.492;2023-08-30T05:03:06;23.00;55.87
65472;DHT22;52068;50.710;14.492;2023-08-30T05:05:32;23.00;55.88
65472;DHT22;52068;50.710;14.492;2023-08-30T05:07:57;22.99;55.87
65472;DHT22;52068;50.710;14.492;2023-08-30T05:10:23;22.99;55.74
65472;DHT22;52068;50.710;14.492;2023-08-30T05:12:48;23.02;55.56
65472;DHT22;52068;50.710;14.492;2023-08-30T05:15:17;23.00;55.44
65472;DHT22;52068;50.710;14.492;2023-08-30T05:17:43;23.00;55.40
65472;DHT22;52068;50.710;14.492;2023-08-30T05:20:08;23.00;55.27
65472;DHT22;52068;50.710;14.492;2023-08-30T05:22:34;23.00;55.25
65472;DHT22;52068;50.710;14.492;2023-08-30T05:24:59;22.96;55.29
65472;DHT22;52068;50.710;14.492;2023-08-30T05:27:25;22.94;55.32
65472;DHT22;52068;50.710;14.492;2023-08-30T05:29:51;22.93;55.22
65472;DHT22;52068;50.710;14.492;2023-08-30T05:32:17;22.93;55.25
65472;DHT22;52068;50.710;14.492;2023-08-30T05:34:42;22.89;55.32
65472;DHT22;52068;50.710;14.492;2023-08-30T05:37:07;22.93;55.34
65472;DHT22;52068;50.710;14.492;2023-08-30T05:39:34;22.92;55.27
65472;DHT22;52068;50.710;14.492;2023-08-30T05:41:59;22.92;55.39
65472;DHT22;52068;50.710;14.492;2023-08-30T05:44:25;22.89;55.36
65472;DHT22;52068;50.710;14.492;2023-08-30T05:46:50;22.87;55.66
65472;DHT22;52068;50.710;14.492;2023-08-30T05:49:16;22.89;55.61
65472;DHT22;52068;50.710;14.492;2023-08-30T05:51:41;22.89;55.61
65472;DHT22;52068;50.710;14.492;2023-08-30T05:54:06;22.92;55.71
65472;DHT22;52068;50.710;14.492;2023-08-30T05:56:32;22.89;55.66
65472;DHT22;52068;50.710;14.492;2023-08-30T05:58:57;22.94;55.67
65472;DHT22;52068;50.710;14.492;2023-08-30T06:01:22;22.94;55.72
65472;DHT22;52068;50.710;14.492;2023-08-30T06:03:48;22.94;55.68
65472;DHT22;52068;50.710;14.492;2023-08-30T06:06:13;22.94;55.69
65472;DHT22;52068;50.710;14.492;2023-08-30T06:08:39;22.97;55.74
65472;DHT22;52068;50.710;14.492;2023-08-30T06:11:04;22.97;55.63
65472;DHT22;52068;50.710;14.492;2023-08-30T06:13:30;22.96;55.58
65472;DHT22;52068;50.710;14.492;2023-08-30T06:15:55;22.96;55.56
65472;DHT22;52068;50.710;14.492;2023-08-30T06:18:20;22.96;55.53
65472;DHT22;52068;50.710;14.492;2023-08-30T06:20:46;22.96;55.50
65472;DHT22;52068;50.710;14.492;2023-08-30T06:23:13;22.99;55.49
65472;DHT22;52068;50.710;14.492;2023-08-30T06:25:38;22.97;55.44
65472;DHT22;52068;50.710;14.492;2023-08-30T06:28:04;22.99;55.38
65472;DHT22;52068;50.710;14.492;2023-08-30T06:30:30;23.00;55.33
65472;DHT22;52068;50.710;14.492;2023-08-30T06:32:56;22.97;55.34
65472;DHT22;52068;50.710;14.492;2023-08-30T06:35:22;22.99;55.28
65472;DHT22;52068;50.710;14.492;2023-08-30T06:37:47;22.99;55.23
65472;DHT22;52068;50.710;14.492;2023-08-30T06:40:13;23.00;55.26
65472;DHT22;52068;50.710;14.492;2023-08-30T06:42:38;22.97;55.22
65472;DHT22;52068;50.710;14.492;2023-08-30T06:45:04;23.00;55.19
65472;DHT22;52068;50.710;14.492;2023-08-30T06:47:29;22.99;55.16
65472;DHT22;52068;50.710;14.492;2023-08-30T06:49:55;22.99;55.18
65472;DHT22;52068;50.710;14.492;2023-08-30T06:52:20;22.97;55.08
65472;DHT22;52068;50.710;14.492;2023-08-30T06:54:45;22.99;55.12
65472;DHT22;52068;50.710;14.492;2023-08-30T06:57:11;22.99;55.08
65472;DHT22;52068;50.710;14.492;2023-08-30T06:59:36;22.99;55.07
65472;DHT22;52068;50.710;14.492;2023-08-30T07:02:02;22.97;55.01
65472;DHT22;52068;50.710;14.492;2023-08-30T07:04:28;22.97;55.03
65472;DHT22;52068;50.710;14.492;2023-08-30T07:06:53;22.96;54.97
65472;DHT22;52068;50.710;14.492;2023-08-30T07:09:19;23.00;54.98
65472;DHT22;52068;50.710;14.492;2023-08-30T07:11:45;22.97;55.00
65472;DHT22;52068;50.710;14.492;2023-08-30T07:14:10;22.99;54.90
65472;DHT22;52068;50.710;14.492;2023-08-30T07:16:36;22.96;54.91
65472;DHT22;52068;50.710;14.492;2023-08-30T07:19:02;23.00;54.85
65472;DHT22;52068;50.710;14.492;2023-08-30T07:21:27;22.99;54.85
65472;DHT22;52068;50.710;14.492;2023-08-30T07:23:52;22.97;54.87
65472;DHT22;52068;50.710;14.492;2023-08-30T07:26:18;22.99;54.83
65472;DHT22;52068;50.710;14.492;2023-08-30T07:28:43;23.00;54.81
65472;DHT22;52068;50.710;14.492;2023-08-30T07:31:09;22.96;54.65
65472;DHT22;52068;50.710;14.492;2023-08-30T07:33:35;22.96;54.49
65472;DHT22;52068;50.710;14.492;2023-08-30T07:36:00;22.96;54.41
65472;DHT22;52068;50.710;14.492;2023-08-30T07:38:26;22.94;54.38
65472;DHT22;52068;50.710;14.492;2023-08-30T07:40:53;22.96;54.43
65472;DHT22;52068;50.710;14.492;2023-08-30T07:43:19;22.97;54.51
65472;DHT22;52068;50.710;14.492;2023-08-30T07:45:44;22.93;54.55
65472;DHT22;52068;50.710;14.492;2023-08-30T07:48:10;22.92;54.65
65472;DHT22;52068;50.710;14.492;2023-08-30T07:50:35;22.93;54.64
65472;DHT22;52068;50.710;14.492;2023-08-30T07:53:00;22.93;54.67
65472;DHT22;52068;50.710;14.492;2023-08-30T07:55:26;22.92;54.63
65472;DHT22;52068;50.710;14.492;2023-08-30T07:57:51;22.93;54.71
65472;DHT22;52068;50.710;14.492;2023-08-30T08:00:16;22.93;54.66
65472;DHT22;52068;50.710;14.492;2023-08-30T08:02:42;22.94;54.61
65472;DHT22;52068;50.710;14.492;2023-08-30T08:05:08;22.93;54.63
65472;DHT22;52068;50.710;14.492;2023-08-30T08:07:33;22.92;54.33
65472;DHT22;52068;50.710;14.492;2023-08-30T08:09:59;22.90;54.39
65472;DHT22;52068;50.710;14.492;2023-08-30T08:12:26;22.89;54.49
65472;DHT22;52068;50.710;14.492;2023-08-30T08:14:51;22.89;54.36
65472;DHT22;52068;50.710;14.492;2023-08-30T08:17:17;22.89;54.55
65472;DHT22;52068;50.710;14.492;2023-08-30T08:19:42;22.87;54.62
65472;DHT22;52068;50.710;14.492;2023-08-30T08:22:09;22.89;54.58
65472;DHT22;52068;50.710;14.492;2023-08-30T08:24:34;22.87;54.55
65472;DHT22;52068;50.710;14.492;2023-08-30T08:26:59;22.89;54.46
65472;DHT22;52068;50.710;14.492;2023-08-30T08:29:27;22.89;54.48
65472;DHT22;52068;50.710;14.492;2023-08-30T08:31:52;22.87;54.64
65472;DHT22;52068;50.710;14.492;2023-08-30T08:34:18;22.84;54.41
65472;DHT22;52068;50.710;14.492;2023-08-30T08:36:44;22.86;54.55
65472;DHT22;52068;50.710;14.492;2023-08-30T08:39:09;22.84;54.52
65472;DHT22;52068;50.710;14.492;2023-08-30T08:41:39;22.86;54.63
65472;DHT22;52068;50.710;14.492;2023-08-30T08:44:05;22.87;54.58
65472;DHT22;52068;50.710;14.492;2023-08-30T08:46:32;22.86;54.51
65472;DHT22;52068;50.710;14.492;2023-08-30T08:48:58;22.86;54.61
65472;DHT22;52068;50.710;14.492;2023-08-30T08:51:26;22.86;54.68
65472;DHT22;52068;50.710;14.492;2023-08-30T08:53:54;22.87;54.69
65472;DHT22;52068;50.710;14.492;2023-08-30T08:56:22;22.86;54.62
65472;DHT22;52068;50.710;14.492;2023-08-30T08:58:48;22.87;54.71
65472;DHT22;52068;50.710;14.492;2023-08-30T09:01:14;22.86;54.66
65472;DHT22;52068;50.710;14.492;2023-08-30T09:03:39;22.89;54.70
65472;DHT22;52068;50.710;14.492;2023-08-30T09:06:05;22.87;54.75
65472;DHT22;52068;50.710;14.492;2023-08-30T09:08:30;22.87;54.66
65472;DHT22;52068;50.710;14.492;2023-08-30T09:10:56;22.87;54.60
65472;DHT22;52068;50.710;14.492;2023-08-30T09:13:21;22.87;54.57
65472;DHT22;52068;50.710;14.492;2023-08-30T09:15:48;22.89;54.74
65472;DHT22;52068;50.710;14.492;2023-08-30T09:18:17;22.92;54.74
65472;DHT22;52068;50.710;14.492;2023-08-30T09:20:43;22.89;54.70
65472;DHT22;52068;50.710;14.492;2023-08-30T09:23:21;22.89;54.59
65472;DHT22;52068;50.710;14.492;2023-08-30T09:25:54;22.89;54.65
65472;DHT22;52068;50.710;14.492;2023-08-30T09:28:20;22.90;54.62
65472;DHT22;52068;50.710;14.492;2023-08-30T09:30:54;22.89;54.67
65472;DHT22;52068;50.710;14.492;2023-08-30T09:33:29;22.92;54.61
65472;DHT22;52068;50.710;14.492;2023-08-30T09:35:55;22.86;54.60
65472;DHT22;52068;50.710;14.492;2023-08-30T09:38:21;22.90;54.64
65472;DHT22;52068;50.710;14.492;2023-08-30T09:40:47;22.89;54.59
65472;DHT22;52068;50.710;14.492;2023-08-30T09:43:13;22.89;54.57
65472;DHT22;52068;50.710;14.492;2023-08-30T09:45:40;22.90;54.62
65472;DHT22;52068;50.710;14.492;2023-08-30T09:48:07;22.90;54.53
65472;DHT22;52068;50.710;14.492;2023-08-30T09:50:34;22.87;54.55
65472;DHT22;52068;50.710;14.492;2023-08-30T09:53:06;22.89;54.55
65472;DHT22;52068;50.710;14.492;2023-08-30T09:55:33;22.90;54.60
65472;DHT22;52068;50.710;14.492;2023-08-30T09:57:59;22.90;54.50
65472;DHT22;52068;50.710;14.492;2023-08-30T10:00:25;22.87;54.33
65472;DHT22;52068;50.710;14.492;2023-08-30T10:02:51;22.89;54.44
65472;DHT22;52068;50.710;14.492;2023-08-30T10:05:16;22.87;54.38
65472;DHT22;52068;50.710;14.492;2023-08-30T10:07:43;22.86;54.44
65472;DHT22;52068;50.710;14.492;2023-08-30T10:10:11;22.87;54.49
65472;DHT22;52068;50.710;14.492;2023-08-30T10:12:37;22.86;54.43
65472;DHT22;52068;50.710;14.492;2023-08-30T10:15:05;22.86;54.50
65472;DHT22;52068;50.710;14.492;2023-08-30T10:17:34;22.87;54.56
65472;DHT22;52068;50.710;14.492;2023-08-30T10:20:04;22.86;54.48
65472;DHT22;52068;50.710;14.492;2023-08-30T10:22:34;22.84;54.43
65472;DHT22;52068;50.710;14.492;2023-08-30T10:25:05;22.86;54.31
65472;DHT22;52068;50.710;14.492;2023-08-30T10:27:33;22.86;54.36
65472;DHT22;52068;50.710;14.492;2023-08-30T10:30:04;22.86;54.33
65472;DHT22;52068;50.710;14.492;2023-08-30T10:32:30;22.87;54.46
65472;DHT22;52068;50.710;14.492;2023-08-30T10:35:00;22.87;54.48
65472;DHT22;52068;50.710;14.492;2023-08-30T10:37:26;22.90;54.52
65472;DHT22;52068;50.710;14.492;2023-08-30T10:39:52;22.87;54.47
65472;DHT22;52068;50.710;14.492;2023-08-30T10:42:22;22.90;54.47
65472;DHT22;52068;50.710;14.492;2023-08-30T10:47:23;22.89;54.48
65472;DHT22;52068;50.710;14.492;2023-08-30T10:49:53;22.92;54.65
65472;DHT22;52068;50.710;14.492;2023-08-30T10:52:19;22.93;54.73
65472;DHT22;52068;50.710;14.492;2023-08-30T10:54:44;22.92;54.61
65472;DHT22;52068;50.710;14.492;2023-08-30T10:57:14;22.92;54.44
65472;DHT22;52068;50.710;14.492;2023-08-30T10:59:40;22.93;54.41
65472;DHT22;52068;50.710;14.492;2023-08-30T11:02:06;22.94;54.48
65472;DHT22;52068;50.710;14.492;2023-08-30T11:04:31;22.96;54.42
65472;DHT22;52068;50.710;14.492;2023-08-30T11:06:57;22.97;54.34
65472;DHT22;52068;50.710;14.492;2023-08-30T11:09:23;22.99;54.17
65472;DHT22;52068;50.710;14.492;2023-08-30T11:11:50;22.97;54.15
65472;DHT22;52068;50.710;14.492;2023-08-30T11:14:17;23.00;54.13
65472;DHT22;52068;50.710;14.492;2023-08-30T11:16:42;23.00;54.04
65472;DHT22;52068;50.710;14.492;2023-08-30T11:19:09;23.02;53.99
65472;DHT22;52068;50.710;14.492;2023-08-30T11:21:41;23.02;53.94
65472;DHT22;52068;50.710;14.492;2023-08-30T11:24:07;23.06;54.00
65472;DHT22;52068;50.710;14.492;2023-08-30T11:26:33;23.06;53.90
65472;DHT22;52068;50.710;14.492;2023-08-30T11:29:08;23.08;53.79
65472;DHT22;52068;50.710;14.492;2023-08-30T11:31:34;23.10;53.74
65472;DHT22;52068;50.710;14.492;2023-08-30T11:34:00;23.11;53.71
65472;DHT22;52068;50.710;14.492;2023-08-30T11:36:28;23.10;53.66
65472;DHT22;52068;50.710;14.492;2023-08-30T11:38:54;23.14;53.50
65472;DHT22;52068;50.710;14.492;2023-08-30T11:41:20;23.15;53.55
65472;DHT22;52068;50.710;14.492;2023-08-30T11:43:50;23.20;53.49
65472;DHT22;52068;50.710;14.492;2023-08-30T11:46:17;23.18;53.40
65472;DHT22;52068;50.710;14.492;2023-08-30T11:48:43;23.20;53.33
65472;DHT22;52068;50.710;14.492;2023-08-30T11:51:09;23.21;53.34
65472;DHT22;52068;50.710;14.492;2023-08-30T11:53:36;23.23;53.37
65472;DHT22;52068;50.710;14.492;2023-08-30T11:56:02;23.21;53.30
65472;DHT22;52068;50.710;14.492;2023-08-30T11:58:32;23.23;53.00
65472;DHT22;52068;50.710;14.492;2023-08-30T12:00:57;23.24;53.04
65472;DHT22;52068;50.710;14.492;2023-08-30T12:03:23;23.27;53.14
65472;DHT22;52068;50.710;14.492;2023-08-30T12:05:49;23.28;53.24
65472;DHT22;52068;50.710;14.492;2023-08-30T12:08:25;23.30;53.23
65472;DHT22;52068;50.710;14.492;2023-08-30T12:10:52;23.33;53.05
65472;DHT22;52068;50.710;14.492;2023-08-30T12:13:28;23.35;53.15
65472;DHT22;52068;50.710;14.492;2023-08-30T12:15:57;23.37;53.12
65472;DHT22;52068;50.710;14.492;2023-08-30T12:20:58;23.41;53.11
65472;DHT22;52068;50.710;14.492;2023-08-30T12:23:26;23.45;53.08
65472;DHT22;52068;50.710;14.492;2023-08-30T12:26:01;23.45;53.08
65472;DHT22;52068;50.710;14.492;2023-08-30T12:28:30;23.48;52.98
65472;DHT22;52068;50.710;14.492;2023-08-30T12:30:56;23.48;53.05
65472;DHT22;52068;50.710;14.492;2023-08-30T12:33:22;23.47;53.07
65472;DHT22;52068;50.710;14.492;2023-08-30T12:35:48;23.48;53.09
65472;DHT22;52068;50.710;14.492;2023-08-30T12:38:13;23.51;53.04
65472;DHT22;52068;50.710;14.492;2023-08-30T12:40:49;23.51;53.08
65472;DHT22;52068;50.710;14.492;2023-08-30T12:43:16;23.54;53.09
65472;DHT22;52068;50.710;14.492;2023-08-30T12:45:42;23.54;53.11
65472;DHT22;52068;50.710;14.492;2023-08-30T12:48:10;23.51;53.06
65472;DHT22;52068;50.710;14.492;2023-08-30T12:50:36;23.55;53.08
65472;DHT22;52068;50.710;14.492;2023-08-30T12:53:06;23.52;53.13
65472;DHT22;52068;50.710;14.492;2023-08-30T12:55:31;23.52;53.11
65472;DHT22;52068;50.710;14.492;2023-08-30T12:57:57;23.55;53.17
65472;DHT22;52068;50.710;14.492;2023-08-30T13:00:23;23.54;53.19
65472;DHT22;52068;50.710;14.492;2023-08-30T13:02:49;23.54;53.22
65472;DHT22;52068;50.710;14.492;2023-08-30T13:05:14;23.54;53.25
65472;DHT22;52068;50.710;14.492;2023-08-30T13:07:40;23.54;53.24
65472;DHT22;52068;50.710;14.492;2023-08-30T13:10:06;23.57;53.26
65472;DHT22;52068;50.710;14.492;2023-08-30T13:12:32;23.55;53.23
65472;DHT22;52068;50.710;14.492;2023-08-30T13:14:57;23.57;53.25
65472;DHT22;52068;50.710;14.492;2023-08-30T13:17:22;23.59;53.20
65472;DHT22;52068;50.710;14.492;2023-08-30T13:19:48;23.59;53.23
65472;DHT22;52068;50.710;14.492;2023-08-30T13:22:14;23.59;53.15
65472;DHT22;52068;50.710;14.492;2023-08-30T13:24:39;23.62;53.15
65472;DHT22;52068;50.710;14.492;2023-08-30T13:27:05;23.59;53.15
65472;DHT22;52068;50.710;14.492;2023-08-30T13:29:31;23.61;53.12
65472;DHT22;52068;50.710;14.492;2023-08-30T13:31:56;23.59;53.16
65472;DHT22;52068;50.710;14.492;2023-08-30T13:34:22;23.57;53.17
65472;DHT22;52068;50.710;14.492;2023-08-30T13:36:47;23.59;53.17
65472;DHT22;52068;50.710;14.492;2023-08-30T13:39:12;23.59;53.15
65472;DHT22;52068;50.710;14.492;2023-08-30T13:41:38;23.57;53.23
65472;DHT22;52068;50.710;14.492;2023-08-30T13:44:03;23.57;53.24
65472;DHT22;52068;50.710;14.492;2023-08-30T13:46:30;23.58;53.25
65472;DHT22;52068;50.710;14.492;2023-08-30T13:48:55;23.55;53.28
65472;DHT22;52068;50.710;14.492;2023-08-30T13:51:25;23.55;53.29
65472;DHT22;52068;50.710;14.492;2023-08-30T13:53:50;23.58;53.22
65472;DHT22;52068;50.710;14.492;2023-08-30T13:56:16;23.58;53.23
65472;DHT22;52068;50.710;14.492;2023-08-30T13:58:42;23.58;53.15
65472;DHT22;52068;50.710;14.492;2023-08-30T14:01:07;23.57;53.15
65472;DHT22;52068;50.710;14.492;2023-08-30T14:03:33;23.55;53.14
65472;DHT22;52068;50.710;14.492;2023-08-30T14:05:58;23.58;53.08
65472;DHT22;52068;50.710;14.492;2023-08-30T14:08:24;23.61;53.09
65472;DHT22;52068;50.710;14.492;2023-08-30T14:10:49;23.58;53.10
65472;DHT22;52068;50.710;14.492;2023-08-30T14:13:15;23.59;53.07
65472;DHT22;52068;50.710;14.492;2023-08-30T14:15:41;23.55;53.04
65472;DHT22;52068;50.710;14.492;2023-08-30T14:18:07;23.58;52.98
65472;DHT22;52068;50.710;14.492;2023-08-30T14:20:33;23.57;52.99
65472;DHT22;52068;50.710;14.492;2023-08-30T14:22:58;23.57;52.99
65472;DHT22;52068;50.710;14.492;2023-08-30T14:25:23;23.57;52.98
65472;DHT22;52068;50.710;14.492;2023-08-30T14:27:49;23.55;52.98
65472;DHT22;52068;50.710;14.492;2023-08-30T14:30:15;23.58;52.94
65472;DHT22;52068;50.710;14.492;2023-08-30T14:32:40;23.57;52.92
65472;DHT22;52068;50.710;14.492;2023-08-30T14:35:06;23.55;52.81
65472;DHT22;52068;50.710;14.492;2023-08-30T14:37:32;23.57;52.80
65472;DHT22;52068;50.710;14.492;2023-08-30T14:39:59;23.58;52.78
65472;DHT22;52068;50.710;14.492;2023-08-30T14:42:25;23.59;52.66
65472;DHT22;52068;50.710;14.492;2023-08-30T14:44:51;23.58;52.72
65472;DHT22;52068;50.710;14.492;2023-08-30T14:47:17;23.59;52.67
65472;DHT22;52068;50.710;14.492;2023-08-30T14:49:44;23.58;52.45
65472;DHT22;52068;50.710;14.492;2023-08-30T14:52:10;23.59;52.29
65472;DHT22;52068;50.710;14.492;2023-08-30T14:54:35;23.59;52.49
65472;DHT22;52068;50.710;14.492;2023-08-30T14:57:00;23.58;52.28
65472;DHT22;52068;50.710;14.492;2023-08-30T14:59:26;23.58;52.13
65472;DHT22;52068;50.710;14.492;2023-08-30T15:01:51;23.58;52.32
65472;DHT22;52068;50.710;14.492;2023-08-30T15:04:17;23.57;52.32
65472;DHT22;52068;50.710;14.492;2023-08-30T15:06:42;23.58;52.41
65472;DHT22;52068;50.710;14.492;2023-08-30T15:09:09;23.54;52.54
65472;DHT22;52068;50.710;14.492;2023-08-30T15:11:35;23.52;52.57
65472;DHT22;52068;50.710;14.492;2023-08-30T15:14:00;23.52;52.56
65472;DHT22;52068;50.710;14.492;2023-08-30T15:16:25;23.51;52.60